createdAt,value
2022-11-19T00:00:24.806Z,50.70
2022-11-19T00:02:55.822Z,51.00
2022-11-19T00:05:24.431Z,50.50
2022-11-19T00:07:53.984Z,50.80
2022-11-19T00:10:22.653Z,50.70
2022-11-19T00:12:57.333Z,50.50
2022-11-19T00:15:26.299Z,50.50
2022-11-19T00:17:55.006Z,50.50
2022-11-19T00:20:23.716Z,50.50
2022-11-19T00:22:54.219Z,50.40
2022-11-19T00:25:26.353Z,50.80
2022-11-19T00:27:58.292Z,50.50
2022-11-19T00:30:47.076Z,50.60
2022-11-19T00:33:16.208Z,51.50
2022-11-19T00:35:44.737Z,51.40
2022-11-19T00:38:13.459Z,51.80
2022-11-19T00:40:43.713Z,52.10
2022-11-19T00:43:31.436Z,51.80
2022-11-19T00:46:00.030Z,51.80
2022-11-19T00:48:28.654Z,52.00
2022-11-19T00:50:57.384Z,52.10
2022-11-19T00:53:26.098Z,52.20
2022-11-19T00:55:54.951Z,52.30
2022-11-19T00:58:24.970Z,52.70
2022-11-19T01:00:53.709Z,52.70
2022-11-19T01:03:22.495Z,52.60
2022-11-19T01:05:51.664Z,52.70
2022-11-19T01:08:21.171Z,53.20
2022-11-19T01:10:49.850Z,53.10
2022-11-19T01:13:36.898Z,53.00
2022-11-19T01:16:12.094Z,52.60
2022-11-19T01:18:42.581Z,52.30
2022-11-19T01:21:13.657Z,51.90
2022-11-19T01:23:44.102Z,51.10
2022-11-19T01:26:14.185Z,51.30
2022-11-19T01:28:44.567Z,51.20
2022-11-19T01:31:17.926Z,50.90
2022-11-19T01:33:47.169Z,50.70
2022-11-19T01:36:22.419Z,50.80
2022-11-19T01:38:52.088Z,50.70
2022-11-19T01:41:21.897Z,50.70
2022-11-19T01:43:53.099Z,51.10
2022-11-19T01:46:25.748Z,51.30
2022-11-19T01:48:59.984Z,51.10
2022-11-19T01:51:34.206Z,50.40
2022-11-19T01:54:08.463Z,50.90
2022-11-19T01:56:38.474Z,50.80
2022-11-19T01:59:11.980Z,50.70
2022-11-19T02:01:47.386Z,50.60
2022-11-19T02:04:20.300Z,50.30
2022-11-19T02:06:53.556Z,50.20
2022-11-19T02:09:22.893Z,50.00
2022-11-19T02:12:24.686Z,50.00
2022-11-19T02:15:17.929Z,49.80
2022-11-19T02:18:12.323Z,49.80
2022-11-19T02:21:07.414Z,49.80
2022-11-19T02:24:16.342Z,49.70
2022-11-19T02:27:38.337Z,50.10
2022-11-19T02:30:12.260Z,50.30
2022-11-19T02:33:01.183Z,50.30
2022-11-19T02:35:51.799Z,50.30
2022-11-19T02:38:43.847Z,50.40
2022-11-19T02:41:38.213Z,50.20
2022-11-19T02:44:41.808Z,50.20
2022-11-19T02:47:24.047Z,50.00
2022-11-19T02:50:10.206Z,49.90
2022-11-19T02:52:40.402Z,50.00
2022-11-19T02:55:13.795Z,49.90
2022-11-19T02:57:45.340Z,49.80
2022-11-19T03:00:32.679Z,49.90
2022-11-19T03:03:38.368Z,49.80
2022-11-19T03:06:14.536Z,50.00
2022-11-19T03:08:43.778Z,50.30
2022-11-19T03:11:24.152Z,50.50
2022-11-19T03:14:21.189Z,50.70
2022-11-19T03:16:59.515Z,50.70
2022-11-19T03:19:37.804Z,50.50
2022-11-19T03:22:19.754Z,50.50
2022-11-19T03:24:58.503Z,50.50
2022-11-19T03:27:34.297Z,50.30
2022-11-19T03:30:05.357Z,50.30
2022-11-19T03:32:40.577Z,50.40
2022-11-19T03:35:17.338Z,50.30
2022-11-19T03:37:52.377Z,50.30
2022-11-19T03:40:24.636Z,50.60
2022-11-19T03:42:57.375Z,50.70
2022-11-19T03:45:32.363Z,50.90
2022-11-19T03:48:04.941Z,51.00
2022-11-19T03:50:47.243Z,50.70
2022-11-19T03:53:16.175Z,50.70
2022-11-19T03:55:52.140Z,50.80
2022-11-19T03:58:24.605Z,50.80
2022-11-19T04:00:53.944Z,50.70
2022-11-19T04:03:22.965Z,50.50
2022-11-19T04:05:53.083Z,50.60
2022-11-19T04:08:21.635Z,50.20
2022-11-19T04:10:50.351Z,50.40
2022-11-19T04:13:18.945Z,50.40
2022-11-19T04:15:48.964Z,50.50
2022-11-19T04:18:17.664Z,50.60
2022-11-19T04:20:47.267Z,50.60
2022-11-19T04:23:17.193Z,50.90
2022-11-19T04:25:48.264Z,51.00
2022-11-19T04:28:16.830Z,51.00
2022-11-19T04:30:45.408Z,50.70
2022-11-19T04:33:14.054Z,50.70
2022-11-19T04:35:46.230Z,50.70
2022-11-19T04:38:16.266Z,50.60
2022-11-19T04:40:44.916Z,50.70
2022-11-19T04:43:13.604Z,50.90
2022-11-19T04:45:42.280Z,51.40
2022-11-19T04:48:10.922Z,50.60
2022-11-19T04:50:39.566Z,50.60
2022-11-19T04:53:08.348Z,50.50
2022-11-19T04:55:38.308Z,50.80
2022-11-19T04:58:06.924Z,51.20
2022-11-19T05:00:35.535Z,51.00
2022-11-19T05:03:04.245Z,51.30
2022-11-19T05:05:32.899Z,51.30
2022-11-19T05:08:01.583Z,51.20
2022-11-19T05:10:30.234Z,51.20
2022-11-19T05:13:00.489Z,51.00
2022-11-19T05:15:29.142Z,50.60
2022-11-19T05:17:57.823Z,51.00
2022-11-19T05:20:26.323Z,50.50
2022-11-19T05:22:55.134Z,50.40
2022-11-19T05:25:23.876Z,50.50
2022-11-19T05:27:53.322Z,50.40
2022-11-19T05:30:23.492Z,50.40
2022-11-19T05:32:52.097Z,50.50
2022-11-19T05:35:20.773Z,50.40
2022-11-19T05:37:51.034Z,50.20
2022-11-19T05:40:20.216Z,50.00
2022-11-19T05:42:48.839Z,50.00
2022-11-19T05:45:17.787Z,49.90
2022-11-19T05:47:48.942Z,49.80
2022-11-19T05:50:17.758Z,49.80
2022-11-19T05:52:46.568Z,49.90
2022-11-19T05:55:15.473Z,50.00
2022-11-19T05:57:44.159Z,50.00
2022-11-19T06:00:14.666Z,49.70
2022-11-19T06:02:43.322Z,49.80
2022-11-19T06:05:13.927Z,49.90
2022-11-19T06:07:42.550Z,50.10
2022-11-19T06:10:11.611Z,49.90
2022-11-19T06:12:45.173Z,50.00
2022-11-19T06:15:14.907Z,50.20
2022-11-19T06:17:43.644Z,50.20
2022-11-19T06:20:13.887Z,50.00
2022-11-19T06:22:42.404Z,50.00
2022-11-19T06:25:11.306Z,49.80
2022-11-19T06:27:39.951Z,49.70
2022-11-19T06:30:10.268Z,49.70
2022-11-19T06:32:38.923Z,49.70
2022-11-19T06:35:08.592Z,49.50
2022-11-19T06:37:38.721Z,49.10
2022-11-19T06:40:09.223Z,49.20
2022-11-19T06:42:38.175Z,49.70
2022-11-19T06:45:11.668Z,49.80
2022-11-19T06:47:42.551Z,50.00
2022-11-19T06:50:12.471Z,50.10
2022-11-19T06:52:42.555Z,50.30
2022-11-19T06:55:11.470Z,50.20
2022-11-19T06:57:40.009Z,50.00
2022-11-19T07:00:10.441Z,50.10
2022-11-19T07:02:39.076Z,50.40
2022-11-19T07:05:08.745Z,50.20
2022-11-19T07:07:37.444Z,50.60
2022-11-19T07:10:09.341Z,51.00
2022-11-19T07:12:38.055Z,51.00
2022-11-19T07:15:07.795Z,50.80
2022-11-19T07:17:36.582Z,50.80
2022-11-19T07:20:06.452Z,50.70
2022-11-19T07:22:35.072Z,50.70
2022-11-19T07:25:03.705Z,50.80
2022-11-19T07:27:34.538Z,51.80
2022-11-19T07:30:05.210Z,52.20
2022-11-19T07:32:34.135Z,52.20
2022-11-19T07:35:02.837Z,52.50
2022-11-19T07:37:31.611Z,52.30
2022-11-19T07:40:00.159Z,52.10
2022-11-19T07:42:46.025Z,52.40
2022-11-19T07:45:16.485Z,52.90
2022-11-19T07:47:45.160Z,52.70
2022-11-19T07:50:15.204Z,52.40
2022-11-19T07:52:43.880Z,52.30
2022-11-19T07:55:26.530Z,51.80
2022-11-19T07:57:55.699Z,52.60
2022-11-19T08:00:26.274Z,52.90
2022-11-19T08:02:54.927Z,52.90
2022-11-19T08:05:23.575Z,52.70
2022-11-19T08:07:52.255Z,52.40
2022-11-19T08:10:22.277Z,52.10
2022-11-19T08:13:03.290Z,52.10
2022-11-19T08:15:35.292Z,52.10
2022-11-19T08:18:15.841Z,51.70
2022-11-19T08:20:48.360Z,51.30
2022-11-19T08:23:17.391Z,50.90
2022-11-19T08:25:46.749Z,50.40
2022-11-19T08:28:15.490Z,50.20
2022-11-19T08:30:46.807Z,50.00
2022-11-19T08:33:15.480Z,49.90
2022-11-19T08:35:44.301Z,49.50
2022-11-19T08:38:12.895Z,49.40
2022-11-19T08:40:41.492Z,49.50
2022-11-19T08:43:09.064Z,49.30
2022-11-19T08:45:39.832Z,49.30
2022-11-19T08:48:11.077Z,49.00
2022-11-19T08:50:40.117Z,48.80
2022-11-19T08:53:08.697Z,48.70
2022-11-19T08:55:37.329Z,48.20
2022-11-19T08:58:08.023Z,47.70
2022-11-19T09:00:38.332Z,48.20
2022-11-19T09:03:07.103Z,48.30
2022-11-19T09:05:37.134Z,48.30
2022-11-19T09:08:05.730Z,48.60
2022-11-19T09:10:34.585Z,48.80
2022-11-19T09:13:04.185Z,49.10
2022-11-19T09:15:33.525Z,49.10
2022-11-19T09:18:02.095Z,48.10
2022-11-19T09:20:30.864Z,49.30
2022-11-19T09:23:01.144Z,50.00
2022-11-19T09:25:29.748Z,50.60
2022-11-19T09:27:58.340Z,51.10
2022-11-19T09:30:27.243Z,50.40
2022-11-19T09:32:55.970Z,50.90
2022-11-19T09:35:29.663Z,50.60
2022-11-19T09:38:16.525Z,49.90
2022-11-19T09:41:00.575Z,50.70
2022-11-19T09:43:46.607Z,50.70
2022-11-19T09:46:29.025Z,50.60
2022-11-19T09:49:08.939Z,49.40
2022-11-19T09:51:42.853Z,49.60
2022-11-19T09:54:21.500Z,48.90
2022-11-19T09:56:59.086Z,49.80
2022-11-19T09:59:36.702Z,49.20
2022-11-19T10:02:19.098Z,48.60
2022-11-19T10:04:50.442Z,47.40
2022-11-19T10:07:34.798Z,45.20
2022-11-19T10:10:29.389Z,46.30
2022-11-19T10:13:33.359Z,45.00
2022-11-19T10:16:22.532Z,39.60
2022-11-19T10:19:03.111Z,39.60
2022-11-19T10:21:43.624Z,40.90
2022-11-19T10:24:18.512Z,41.20
2022-11-19T10:27:01.107Z,42.40
2022-11-19T10:29:38.692Z,41.60
2022-11-19T10:32:30.872Z,41.40
2022-11-19T10:35:09.548Z,41.70
2022-11-19T10:37:53.749Z,42.60
2022-11-19T10:40:26.607Z,42.30
2022-11-19T10:43:09.428Z,42.80
2022-11-19T10:45:38.098Z,41.50
2022-11-19T10:48:17.001Z,44.20
2022-11-19T10:50:45.835Z,45.00
2022-11-19T10:53:20.555Z,45.00
2022-11-19T10:55:54.913Z,45.10
2022-11-19T10:58:30.836Z,45.40
2022-11-19T11:01:04.902Z,45.40
2022-11-19T11:03:45.157Z,46.10
2022-11-19T11:06:14.064Z,46.10
2022-11-19T11:08:51.794Z,45.60
2022-11-19T11:11:50.318Z,45.10
2022-11-19T11:14:41.551Z,44.50
2022-11-19T11:17:21.147Z,43.20
2022-11-19T11:20:00.156Z,44.10
2022-11-19T11:22:30.145Z,43.30
2022-11-19T11:25:06.827Z,43.00
2022-11-19T11:27:37.452Z,42.00
2022-11-19T11:30:18.066Z,42.60
2022-11-19T11:32:47.515Z,42.50
2022-11-19T11:35:34.401Z,41.20
2022-11-19T11:38:05.743Z,40.90
2022-11-19T11:40:34.564Z,41.40
2022-11-19T11:43:03.433Z,40.70
2022-11-19T11:45:37.573Z,42.10
2022-11-19T11:48:09.806Z,42.30
2022-11-19T11:50:39.449Z,42.60
2022-11-19T11:53:11.243Z,44.90
2022-11-19T11:55:40.333Z,44.50
2022-11-19T11:58:29.368Z,45.00
2022-11-19T12:01:15.975Z,45.00
2022-11-19T12:03:55.556Z,44.70
2022-11-19T12:06:28.116Z,44.40
2022-11-19T12:09:06.460Z,44.30
2022-11-19T12:11:56.642Z,44.00
2022-11-19T12:14:31.568Z,43.50
2022-11-19T12:17:41.375Z,44.80
2022-11-19T12:20:34.750Z,44.20
2022-11-19T12:23:33.353Z,44.20
2022-11-19T12:26:16.933Z,43.90
2022-11-19T12:29:19.562Z,43.30
2022-11-19T12:32:29.426Z,43.50
2022-11-19T12:35:24.054Z,44.00
2022-11-19T12:38:19.698Z,43.40
2022-11-19T12:41:04.209Z,42.20
2022-11-19T12:43:54.533Z,42.10
2022-11-19T12:46:43.309Z,42.80
2022-11-19T12:49:57.798Z,42.20
2022-11-19T12:53:01.735Z,42.10
2022-11-19T12:55:43.056Z,42.10
2022-11-19T12:58:28.562Z,42.50
2022-11-19T13:01:05.083Z,42.50
2022-11-19T13:03:56.112Z,43.50
2022-11-19T13:06:32.615Z,43.90
2022-11-19T13:09:06.533Z,43.10
2022-11-19T13:11:40.423Z,42.20
2022-11-19T13:14:21.331Z,43.00
2022-11-19T13:16:51.342Z,43.00
2022-11-19T13:19:30.186Z,43.80
2022-11-19T13:22:05.837Z,45.10
2022-11-19T13:24:42.563Z,45.10
2022-11-19T13:27:20.220Z,45.50
2022-11-19T13:29:57.893Z,45.00
2022-11-19T13:32:36.113Z,46.50
2022-11-19T13:35:29.260Z,47.30
2022-11-19T13:51:10.404Z,47.70
2022-11-19T13:59:00.966Z,48.70
2022-11-19T14:09:19.710Z,49.70
2022-11-19T15:56:57.771Z,49.60
2022-11-19T16:03:51.567Z,49.50
2022-11-19T16:06:25.827Z,49.40
2022-11-19T16:08:57.944Z,49.40
2022-11-19T16:19:54.785Z,49.40
2022-11-19T16:23:08.978Z,49.20
2022-11-19T16:25:49.431Z,48.60
2022-11-19T16:28:24.338Z,49.00
2022-11-19T16:30:56.409Z,49.10
2022-11-19T16:34:20.866Z,49.70
2022-11-19T16:36:54.660Z,49.90
2022-11-19T16:39:28.935Z,50.00
2022-11-19T16:47:56.939Z,49.30
2022-11-19T17:12:28.567Z,52.20
2022-11-19T17:15:01.835Z,53.00
2022-11-19T17:17:42.946Z,53.20
2022-11-19T17:24:28.227Z,53.10
2022-11-19T17:27:00.712Z,54.40
2022-11-19T17:34:12.400Z,54.70
2022-11-19T17:37:02.026Z,55.20
2022-11-19T17:39:38.707Z,56.70
2022-11-19T17:42:39.416Z,55.60
2022-11-19T17:45:11.223Z,55.40
2022-11-19T17:47:54.257Z,54.70
2022-11-19T17:53:52.426Z,55.20
2022-11-19T17:56:46.915Z,55.20
2022-11-19T18:02:59.042Z,54.90
2022-11-19T18:05:37.699Z,54.80
2022-11-19T18:08:08.245Z,55.30
2022-11-19T18:10:37.366Z,55.40
2022-11-19T18:13:08.419Z,55.10
2022-11-19T18:15:37.624Z,54.80
2022-11-19T18:18:06.358Z,54.70
2022-11-19T18:20:35.295Z,54.00
2022-11-19T18:23:03.990Z,54.00
2022-11-19T18:25:34.250Z,53.60
2022-11-19T18:28:03.069Z,53.20
2022-11-19T18:30:32.545Z,53.00
2022-11-19T18:33:01.309Z,53.00
2022-11-19T18:35:32.877Z,52.80
2022-11-19T18:38:02.330Z,52.40
2022-11-19T18:40:31.226Z,52.20
2022-11-19T18:43:18.873Z,52.10
2022-11-19T18:45:47.489Z,52.10
2022-11-19T18:48:16.659Z,51.70
2022-11-19T18:50:45.554Z,51.70
2022-11-19T18:53:14.364Z,51.80
2022-11-19T18:55:43.006Z,51.50
2022-11-19T18:58:14.359Z,51.40
2022-11-19T19:00:43.739Z,51.40
2022-11-19T19:03:13.789Z,51.40
2022-11-19T19:05:42.486Z,51.20
2022-11-19T19:08:11.195Z,51.40
2022-11-19T19:10:40.015Z,51.60
2022-11-19T19:13:07.770Z,52.10
2022-11-19T19:15:37.650Z,52.10
2022-11-19T19:18:07.876Z,52.20
2022-11-19T19:20:36.724Z,52.10
2022-11-19T19:23:05.278Z,52.00
2022-11-19T19:25:33.745Z,52.10
2022-11-19T19:28:02.361Z,51.80
2022-11-19T19:30:30.904Z,52.30
2022-11-19T19:33:00.927Z,51.30
2022-11-19T19:35:29.433Z,51.60
2022-11-19T19:37:58.003Z,51.80
2022-11-19T19:40:26.467Z,51.80
2022-11-19T19:42:55.227Z,51.80
2022-11-19T19:45:23.711Z,51.70
2022-11-19T19:47:52.213Z,51.40
2022-11-19T19:50:22.149Z,51.30
2022-11-19T19:52:51.086Z,51.20
2022-11-19T19:55:19.760Z,51.10
2022-11-19T19:57:48.382Z,51.00
2022-11-19T20:00:18.582Z,50.70
2022-11-19T20:02:49.976Z,50.50
2022-11-19T20:05:18.644Z,50.90
2022-11-19T20:07:48.577Z,51.20
2022-11-19T20:10:17.630Z,51.20
2022-11-19T20:13:03.951Z,51.30
2022-11-19T20:15:35.211Z,51.00
2022-11-19T20:18:05.528Z,50.90
2022-11-19T20:20:35.031Z,50.80
2022-11-19T20:23:04.983Z,50.90
2022-11-19T20:25:34.253Z,50.00
2022-11-19T20:28:02.842Z,50.10
2022-11-19T20:30:31.525Z,51.10
2022-11-19T20:33:00.091Z,51.50
2022-11-19T20:35:29.120Z,51.50
2022-11-19T20:38:02.258Z,51.30
2022-11-19T20:40:33.455Z,51.30
2022-11-19T20:46:16.050Z,51.50
2022-11-19T20:48:45.144Z,51.20
2022-11-19T20:51:16.224Z,51.50
2022-11-19T20:53:44.983Z,51.50
2022-11-19T20:56:15.463Z,52.00
2022-11-19T20:58:44.144Z,51.90
2022-11-19T21:01:12.770Z,51.80
2022-11-19T21:03:41.297Z,51.80
2022-11-19T21:06:10.324Z,52.00
2022-11-19T21:08:39.079Z,51.90
2022-11-19T21:11:11.627Z,51.60
2022-11-19T21:13:42.399Z,51.20
2022-11-19T21:16:14.384Z,51.00
2022-11-19T21:18:43.855Z,50.30
2022-11-19T21:21:14.912Z,50.80
2022-11-19T21:23:44.101Z,51.00
2022-11-19T21:26:16.864Z,50.80
2022-11-19T21:28:49.211Z,51.30
2022-11-19T21:31:19.850Z,51.50
2022-11-19T21:33:48.528Z,51.50
2022-11-19T21:36:17.258Z,51.40
2022-11-19T21:38:45.861Z,50.90
2022-11-19T21:41:14.480Z,51.00
2022-11-19T21:43:43.006Z,51.60
2022-11-19T21:46:13.098Z,52.10
2022-11-19T21:48:41.676Z,52.40
2022-11-19T21:51:10.558Z,52.40
2022-11-19T21:53:39.189Z,52.80
2022-11-19T21:56:08.894Z,52.80
2022-11-19T21:58:37.382Z,52.80
2022-11-19T22:01:07.119Z,53.60
2022-11-19T22:03:37.787Z,54.10
2022-11-19T22:06:09.638Z,54.30
2022-11-19T22:08:41.190Z,55.00
2022-11-19T22:11:26.445Z,55.40
2022-11-19T22:13:55.984Z,55.40
2022-11-19T22:16:25.146Z,55.70
2022-11-19T22:18:55.299Z,55.50
2022-11-19T22:21:24.033Z,54.70
2022-11-19T22:23:53.373Z,54.20
2022-11-19T22:26:22.235Z,53.40
2022-11-19T22:28:50.917Z,52.90
2022-11-19T22:31:19.430Z,52.60
2022-11-19T22:33:51.640Z,51.90
2022-11-19T22:36:23.730Z,52.10
2022-11-19T22:38:53.688Z,51.90
2022-11-19T22:41:23.361Z,52.40
2022-11-19T22:43:52.792Z,52.30
2022-11-19T22:46:22.070Z,52.30
2022-11-19T22:48:50.924Z,52.30
2022-11-19T22:51:25.818Z,52.70
2022-11-19T22:53:59.007Z,52.90
2022-11-19T22:56:32.151Z,52.50
2022-11-19T22:59:00.686Z,52.80
2022-11-19T23:01:32.235Z,53.00
2022-11-19T23:04:05.957Z,53.50
2022-11-19T23:06:38.325Z,53.10
2022-11-19T23:09:08.569Z,52.80
2022-11-19T23:12:10.024Z,53.20
2022-11-19T23:14:38.512Z,53.00
2022-11-19T23:17:07.086Z,53.60
2022-11-19T23:19:38.644Z,53.90
2022-11-19T23:22:08.758Z,54.30
2022-11-19T23:24:37.454Z,54.10
2022-11-19T23:27:06.124Z,54.20
2022-11-19T23:29:35.879Z,54.00
2022-11-19T23:32:04.442Z,53.70
2022-11-19T23:34:33.105Z,53.50
2022-11-19T23:37:01.916Z,53.60
2022-11-19T23:39:31.978Z,53.30
2022-11-19T23:42:00.666Z,52.90
2022-11-19T23:44:29.522Z,52.70
2022-11-19T23:47:00.022Z,53.60
2022-11-19T23:49:28.829Z,53.70
2022-11-19T23:51:57.659Z,53.10
2022-11-19T23:54:26.579Z,53.10
2022-11-19T23:56:56.655Z,52.80
2022-11-19T23:59:26.011Z,52.50
